createdAt,value
2023-05-16T00:04:05.264Z,99787.16
2023-05-16T00:09:10.949Z,99787.77
2023-05-16T00:14:16.376Z,99795.64
2023-05-16T00:19:21.838Z,99791.83
2023-05-16T00:24:27.456Z,99794.30
2023-05-16T00:29:32.956Z,99793.70
2023-05-16T00:34:38.562Z,99788.90
2023-05-16T00:39:44.247Z,99785.64
2023-05-16T00:44:49.757Z,99790.65
2023-05-16T00:49:55.399Z,99787.79
2023-05-16T00:55:01.474Z,99782.89
2023-05-16T01:00:12.581Z,99781.59
2023-05-16T01:05:18.415Z,99785.04
2023-05-16T01:10:25.590Z,99776.69
2023-05-16T01:15:37.215Z,99778.11
2023-05-16T01:20:49.508Z,99784.54
2023-05-16T01:26:14.295Z,99793.08
2023-05-16T01:31:20.865Z,99795.80
2023-05-16T01:36:31.398Z,99800.55
2023-05-16T01:41:53.651Z,99808.31
2023-05-16T01:47:02.825Z,99819.33
2023-05-16T01:52:13.490Z,99819.73
2023-05-16T01:57:20.260Z,99820.52
2023-05-16T02:02:25.929Z,99824.16
2023-05-16T02:07:32.225Z,99829.27
2023-05-16T02:12:38.162Z,99827.35
2023-05-16T02:17:44.292Z,99821.11
2023-05-16T02:22:50.175Z,99825.52
2023-05-16T02:27:56.523Z,99828.52
2023-05-16T02:33:02.799Z,99828.53
2023-05-16T02:38:09.768Z,99826.45
2023-05-16T02:43:15.985Z,99836.92
2023-05-16T02:48:21.489Z,99834.52
2023-05-16T02:53:27.107Z,99836.90
2023-05-16T02:58:33.075Z,99836.46
2023-05-16T03:03:39.693Z,99847.04
2023-05-16T03:08:45.284Z,99848.34
2023-05-16T03:13:50.821Z,99853.70
2023-05-16T03:18:57.143Z,99850.27
2023-05-16T03:24:04.515Z,99844.25
2023-05-16T03:29:11.165Z,99850.49
2023-05-16T03:34:16.667Z,99857.74
2023-05-16T03:39:22.811Z,99861.77
2023-05-16T03:44:28.319Z,99867.13
2023-05-16T03:49:33.899Z,99868.46
2023-05-16T03:54:39.467Z,99861.70
2023-05-16T03:59:45.128Z,99859.86
2023-05-16T04:04:50.752Z,99869.75
2023-05-16T04:09:58.669Z,99872.04
2023-05-16T04:15:06.814Z,99873.66
2023-05-16T04:20:13.474Z,99869.52
2023-05-16T04:25:19.638Z,99872.45
2023-05-16T04:30:25.448Z,99870.37
2023-05-16T04:35:31.215Z,99867.39
2023-05-16T04:40:36.850Z,99861.92
2023-05-16T04:45:43.033Z,99863.11
2023-05-16T04:50:48.590Z,99863.11
2023-05-16T04:55:54.249Z,99874.02
2023-05-16T05:01:01.804Z,99879.41
2023-05-16T05:06:08.510Z,99879.73
2023-05-16T05:11:14.174Z,99886.97
2023-05-16T05:16:19.962Z,99889.02
2023-05-16T05:21:25.505Z,99896.94
2023-05-16T05:26:31.244Z,99901.59
2023-05-16T05:31:37.439Z,99905.94
2023-05-16T05:36:47.215Z,99911.38
2023-05-16T05:41:55.278Z,99917.08
2023-05-16T05:47:00.821Z,99922.14
2023-05-16T05:52:06.840Z,99933.61
2023-05-16T05:57:12.338Z,99942.79
2023-05-16T06:02:17.798Z,99961.51
2023-05-16T06:07:23.731Z,99970.70
2023-05-16T06:12:29.168Z,99989.30
2023-05-16T06:17:34.754Z,99994.05
2023-05-16T06:22:40.758Z,100008.05
2023-05-16T06:27:46.249Z,100019.61
2023-05-16T06:32:51.911Z,100028.56
2023-05-16T06:37:57.530Z,100036.67
2023-05-16T06:43:03.126Z,100053.29
2023-05-16T06:48:09.711Z,100063.45
2023-05-16T06:53:15.756Z,100072.55
2023-05-16T06:58:21.761Z,100076.48
2023-05-16T07:03:27.417Z,100081.23
2023-05-16T07:08:36.011Z,100086.70
2023-05-16T07:13:41.376Z,100100.63
2023-05-16T07:18:47.028Z,100110.21
2023-05-16T07:23:52.672Z,100116.26
2023-05-16T07:28:59.071Z,100121.32
2023-05-16T07:34:04.813Z,100129.75
2023-05-16T07:39:10.708Z,100133.82
2023-05-16T07:44:16.443Z,100140.95
2023-05-16T07:49:22.095Z,100148.01
2023-05-16T07:54:27.485Z,100151.17
2023-05-16T07:59:33.518Z,100154.91
2023-05-16T08:04:39.506Z,100167.05
2023-05-16T08:09:44.903Z,100161.65
2023-05-16T08:14:50.803Z,100162.43
2023-05-16T08:19:56.732Z,100173.01
2023-05-16T08:25:02.412Z,100172.98
2023-05-16T08:30:11.416Z,100176.13
2023-05-16T08:35:17.314Z,100174.23
2023-05-16T08:40:25.552Z,100173.85
2023-05-16T08:45:31.997Z,100167.36
2023-05-16T08:50:37.690Z,100168.09
2023-05-16T08:55:44.357Z,100174.88
2023-05-16T09:05:40.791Z,100170.45
2023-05-16T09:10:46.251Z,100178.95
2023-05-16T09:16:12.920Z,100186.67
2023-05-16T09:21:19.528Z,100189.13
2023-05-16T09:26:26.310Z,100193.04
2023-05-16T09:31:38.100Z,100200.19
2023-05-16T09:36:44.990Z,100210.52
2023-05-16T09:41:53.522Z,100230.98
2023-05-16T09:47:00.576Z,100230.25
2023-05-16T09:52:07.800Z,100232.70
2023-05-16T09:57:13.456Z,100234.77
2023-05-16T10:02:20.640Z,100242.39
2023-05-16T10:07:27.129Z,100250.59
2023-05-16T10:12:33.097Z,100269.75
2023-05-16T10:17:43.278Z,100280.02
2023-05-16T10:22:50.411Z,100288.77
2023-05-16T10:27:56.364Z,100296.58
2023-05-16T10:33:04.229Z,100299.94
2023-05-16T10:38:13.353Z,100308.63
2023-05-16T10:43:27.030Z,100313.48
2023-05-16T10:48:34.517Z,100320.89
2023-05-16T10:53:39.911Z,100322.48
2023-05-16T10:58:47.600Z,100319.70
2023-05-16T11:04:10.185Z,100320.38
2023-05-16T11:09:28.383Z,100321.63
2023-05-16T11:14:47.721Z,100321.77
2023-05-16T11:19:57.550Z,100331.41
2023-05-16T11:25:05.804Z,100339.89
2023-05-16T11:30:17.104Z,100344.67
2023-05-16T11:35:22.692Z,100341.48
2023-05-16T11:40:28.283Z,100357.58
2023-05-16T11:45:34.370Z,100361.32
2023-05-16T11:50:39.848Z,100362.73
2023-05-16T11:55:50.102Z,100369.14
2023-05-16T12:00:58.609Z,100369.45
2023-05-16T12:06:04.913Z,100364.96
2023-05-16T12:11:12.203Z,100367.09
2023-05-16T12:16:18.602Z,100368.15
2023-05-16T12:21:24.389Z,100368.26
2023-05-16T12:26:31.282Z,100359.58
2023-05-16T12:31:40.587Z,100365.90
2023-05-16T12:36:50.545Z,100375.36
2023-05-16T12:41:56.338Z,100380.46
2023-05-16T12:47:02.378Z,100376.32
2023-05-16T12:52:19.000Z,100374.44
2023-05-16T12:57:24.639Z,100377.13
2023-05-16T13:02:30.241Z,100378.89
2023-05-16T13:07:36.348Z,100371.12
2023-05-16T13:12:42.665Z,100378.17
2023-05-16T13:17:49.009Z,100367.48
2023-05-16T13:22:55.835Z,100370.67
2023-05-16T13:28:01.674Z,100377.64
2023-05-16T13:33:08.041Z,100388.20
2023-05-16T13:38:15.400Z,100391.89
2023-05-16T13:43:20.963Z,100391.34
2023-05-16T13:48:26.613Z,100388.21
2023-05-16T13:53:32.292Z,100388.67
2023-05-16T13:58:48.938Z,100393.48
2023-05-16T14:04:03.763Z,100391.23
2023-05-16T14:09:09.711Z,100395.33
2023-05-16T14:14:15.363Z,100393.12
2023-05-16T14:19:21.243Z,100391.42
2023-05-16T14:24:26.973Z,100391.39
2023-05-16T14:29:32.742Z,100390.73
2023-05-16T14:34:38.636Z,100390.50
2023-05-16T14:39:46.581Z,100386.13
2023-05-16T14:44:52.089Z,100389.91
2023-05-16T14:49:57.876Z,100390.23
2023-05-16T14:55:03.482Z,100387.11
2023-05-16T15:00:11.844Z,100387.08
2023-05-16T15:05:55.829Z,100392.94
2023-05-16T15:11:01.922Z,100388.11
2023-05-16T15:16:08.296Z,100380.83
2023-05-16T15:21:13.701Z,100378.79
2023-05-16T15:26:19.671Z,100376.25
2023-05-16T15:31:25.539Z,100376.29
2023-05-16T15:36:30.987Z,100375.44
2023-05-16T15:42:00.688Z,100378.23
2023-05-16T15:47:01.877Z,100382.27
2023-05-16T15:52:08.449Z,100385.55
2023-05-16T15:57:13.793Z,100385.73
2023-05-16T16:02:19.210Z,100386.91
2023-05-16T16:07:26.013Z,100387.98
2023-05-16T16:12:31.911Z,100391.79
2023-05-16T16:17:37.677Z,100382.06
2023-05-16T16:22:43.611Z,100378.88
2023-05-16T16:27:49.107Z,100372.36
2023-05-16T16:32:54.543Z,100369.73
2023-05-16T16:38:06.874Z,100369.29
2023-05-16T16:43:13.914Z,100372.70
2023-05-16T16:48:19.481Z,100371.09
2023-05-16T16:53:24.976Z,100374.88
2023-05-16T16:58:30.696Z,100376.75
2023-05-16T17:03:36.378Z,100382.67
2023-05-16T17:08:41.941Z,100385.59
2023-05-16T17:13:47.384Z,100382.49
2023-05-16T17:18:55.073Z,100382.67
2023-05-16T17:24:00.721Z,100388.60
2023-05-16T17:29:06.368Z,100392.73
2023-05-16T17:34:11.779Z,100395.89
2023-05-16T17:39:17.450Z,100398.75
2023-05-16T17:44:23.070Z,100406.22
2023-05-16T17:49:28.628Z,100406.98
2023-05-16T17:54:34.177Z,100408.34
2023-05-16T17:59:40.617Z,100415.78
2023-05-16T18:04:51.623Z,100424.91
2023-05-16T18:10:17.234Z,100420.68
2023-05-16T18:15:23.642Z,100421.25
2023-05-16T18:20:29.881Z,100420.66
2023-05-16T18:25:35.423Z,100427.54
2023-05-16T18:30:41.070Z,100429.73
2023-05-16T18:35:46.629Z,100431.70
2023-05-16T18:40:52.315Z,100428.47
2023-05-16T18:45:57.879Z,100435.95
2023-05-16T18:51:03.699Z,100435.78
2023-05-16T18:56:09.567Z,100443.64
2023-05-16T19:01:15.554Z,100445.52
2023-05-16T19:06:21.238Z,100444.40
2023-05-16T19:11:27.060Z,100439.93
2023-05-16T19:16:32.963Z,100433.63
2023-05-16T19:21:39.207Z,100434.62
2023-05-16T19:26:44.799Z,100436.33
2023-05-16T19:31:50.371Z,100435.44
2023-05-16T19:36:56.224Z,100435.70
2023-05-16T19:42:07.034Z,100437.42
2023-05-16T19:47:17.490Z,100444.79
2023-05-16T19:52:24.327Z,100445.62
2023-05-16T19:57:29.946Z,100447.05
2023-05-16T20:02:35.671Z,100443.77
2023-05-16T20:07:41.585Z,100445.87
2023-05-16T20:12:47.297Z,100452.56
2023-05-16T20:17:52.846Z,100452.16
2023-05-16T20:22:58.260Z,100449.87
2023-05-16T20:28:04.103Z,100451.02
2023-05-16T20:33:09.700Z,100450.30
2023-05-16T20:38:15.221Z,100447.71
2023-05-16T20:43:20.701Z,100444.52
2023-05-16T20:48:26.475Z,100447.79
2023-05-16T20:53:32.104Z,100447.09
2023-05-16T20:58:41.153Z,100446.85
2023-05-16T21:03:46.735Z,100461.36
2023-05-16T21:08:52.142Z,100463.66
2023-05-16T21:13:57.677Z,100462.31
2023-05-16T21:19:04.437Z,100464.61
2023-05-16T21:24:10.244Z,100467.20
2023-05-16T21:29:15.607Z,100467.48
2023-05-16T21:34:21.112Z,100468.84
2023-05-16T21:39:26.479Z,100472.52
2023-05-16T21:44:32.030Z,100469.71
2023-05-16T21:49:37.406Z,100469.44
2023-05-16T21:54:42.986Z,100459.23
2023-05-16T21:59:50.568Z,100456.45
2023-05-16T22:04:56.095Z,100458.62
2023-05-16T22:10:02.504Z,100456.39
2023-05-16T22:15:09.524Z,100458.94
2023-05-16T22:20:15.026Z,100457.95
2023-05-16T22:25:20.832Z,100464.27
2023-05-16T22:30:26.364Z,100467.70
2023-05-16T22:35:31.915Z,100466.11
2023-05-16T22:40:37.862Z,100467.20
2023-05-16T22:45:43.628Z,100470.33
2023-05-16T22:50:49.215Z,100467.20
2023-05-16T22:55:54.945Z,100465.69
2023-05-16T23:01:01.509Z,100468.48
2023-05-16T23:06:07.510Z,100471.86
2023-05-16T23:11:12.857Z,100474.09
2023-05-16T23:16:18.305Z,100471.34
2023-05-16T23:21:23.691Z,100468.59
2023-05-16T23:26:29.165Z,100471.55
2023-05-16T23:31:34.670Z,100461.80
2023-05-16T23:36:40.434Z,100466.12
2023-05-16T23:41:45.859Z,100468.84
2023-05-16T23:46:51.473Z,100465.91
2023-05-16T23:51:58.270Z,100464.93
2023-05-16T23:57:04.155Z,100462.23
